Aérodrome :
LOGIN :

S'inscrire | Disclaimer

   EN    FR    IT 

 










Légende :    VFR   VFR Marginal   IFR   IFR Intensif   IFR Très Intensif
Visi : 
Plafond : 
>= 8 km
>= 3000ft
5 à 8 km
1000 à 3000 ft
1500m à 5 km
500 à 1000 ft
800 à 1500m
200 à 500 ft
< 800m
< 200 ft
Symboles :   Orages  Brouillard  Fortes neiges  Fortes précipitations  Vent > 20 kt
SIGMETs :   Divers  Orages  Givrage  Turbulence  Onde Orograph.  Cendres Volcan.






- Altitude de l'aérodrome : 125 ft
- Code IATA : MGL


EDLN - Mönchengladbach

DERNIER METAR :
  • 301620Z 30011KT 200V330 5000 TSRA BKN016CB 27/15 Q1007

METARs EXPIRÉS :
  • 301550Z 33006KT CAVOK 28/15 Q1007
  • 301520Z VRB02KT CAVOK 28/13 Q1008
  • 301450Z VRB03KT CAVOK 29/13 Q1008
  • 301420Z VRB04KT CAVOK 29/14 Q1009

TAF TAF EDLN
Valide du 30 à 15h jusqu'au 01 à 00h UTC


301400Z 3015/3024 30008KT CAVOK
PROB40
TEMPO 3016/3024 25015G30KT SHRA BKN025CB
PROB30
TEMPO 3016/3019 25020G40KT 3000 +TSRA SCT012 BKN020CB
PROB30
TEMPO 3020/3024 4000 TSRA BKN012CB



MET'MAP, la Météo Aéronautique d'un coup d'oeil ! - Copyright ORBIFLY Décembre 2007 - Disclaimer

ORBIFLY MET'MAP TEAM :

Programmation & Développement : Alexandra Zaïnal
Sur une idée originale de : Baudouin d'Aumeries
Soutien technique & logistique : Manuel Goepfert
Assistance : Marc-Olivier Méhu




SOURCES & CREDITS :

   NOAA